createdAt,value
2018-06-05T00:02:04.845Z,77.60
2018-06-05T00:04:34.294Z,77.70
2018-06-05T00:07:03.728Z,77.60
2018-06-05T00:09:33.215Z,77.70
2018-06-05T00:12:02.674Z,77.70
2018-06-05T00:14:32.106Z,78.00
2018-06-05T00:17:01.543Z,77.70
2018-06-05T00:19:31.016Z,77.30
2018-06-05T00:22:00.455Z,76.80
2018-06-05T00:24:29.900Z,76.80
2018-06-05T00:26:59.424Z,76.30
2018-06-05T00:29:28.839Z,76.40
2018-06-05T00:31:58.270Z,75.60
2018-06-05T00:34:27.747Z,75.70
2018-06-05T00:36:57.249Z,75.30
2018-06-05T00:39:26.693Z,75.50
2018-06-05T00:41:56.111Z,75.20
2018-06-05T00:44:25.569Z,74.80
2018-06-05T00:46:55.131Z,74.50
2018-06-05T00:49:24.563Z,74.80
2018-06-05T00:52:07.391Z,74.40
2018-06-05T00:54:36.880Z,74.70
2018-06-05T00:59:35.664Z,74.70
2018-06-05T01:02:05.131Z,74.70
2018-06-05T01:04:34.573Z,75.30
2018-06-05T01:07:04.149Z,74.80
2018-06-05T01:09:33.606Z,74.90
2018-06-05T01:12:03.096Z,74.50
2018-06-05T01:14:32.549Z,74.20
2018-06-05T01:17:05.724Z,74.90
2018-06-05T01:19:35.159Z,74.50
2018-06-05T01:22:04.600Z,74.50
2018-06-05T01:24:34.044Z,73.90
2018-06-05T01:27:17.973Z,74.50
2018-06-05T01:29:47.397Z,74.50
2018-06-05T01:32:16.812Z,74.20
2018-06-05T01:34:46.295Z,74.10
2018-06-05T01:37:15.834Z,73.90
2018-06-05T01:39:45.248Z,74.00
2018-06-05T01:42:14.746Z,74.10
2018-06-05T01:44:44.286Z,73.80
2018-06-05T01:47:13.687Z,74.20
2018-06-05T01:49:43.108Z,74.10
2018-06-05T01:52:12.554Z,74.20
2018-06-05T01:54:41.974Z,73.40
2018-06-05T01:57:11.387Z,74.20
2018-06-05T01:59:40.848Z,74.20
2018-06-05T02:02:10.277Z,74.30
2018-06-05T02:04:39.691Z,74.40
2018-06-05T02:07:09.330Z,74.60
2018-06-05T02:09:38.793Z,74.20
2018-06-05T02:12:08.274Z,74.20
2018-06-05T02:14:37.706Z,73.70
2018-06-05T02:17:07.181Z,74.10
2018-06-05T02:19:36.633Z,74.20
2018-06-05T02:22:06.131Z,74.40
2018-06-05T02:24:35.555Z,74.40
2018-06-05T02:27:05.055Z,74.50
2018-06-05T02:29:34.547Z,74.80
2018-06-05T02:32:04.010Z,75.40
2018-06-05T02:34:33.471Z,74.60
2018-06-05T02:37:02.919Z,74.70
2018-06-05T02:39:32.336Z,74.90
2018-06-05T02:42:01.779Z,74.80
2018-06-05T02:44:31.203Z,74.50
2018-06-05T02:47:00.670Z,74.70
2018-06-05T02:49:30.110Z,74.40
2018-06-05T02:51:59.554Z,74.10
2018-06-05T02:54:29.007Z,74.20
2018-06-05T02:56:58.489Z,74.40
2018-06-05T02:59:27.894Z,74.60
2018-06-05T03:01:57.346Z,74.70
2018-06-05T03:04:26.838Z,73.50
2018-06-05T03:06:57.295Z,73.90
2018-06-05T03:09:26.709Z,74.30
2018-06-05T03:11:56.140Z,74.50
2018-06-05T03:14:25.587Z,74.00
2018-06-05T03:16:55.102Z,75.10
2018-06-05T03:19:24.619Z,74.80
2018-06-05T03:21:54.085Z,74.70
2018-06-05T03:24:23.655Z,75.40
2018-06-05T03:26:53.085Z,75.50
2018-06-05T03:29:22.507Z,75.70
2018-06-05T03:31:51.922Z,75.90
2018-06-05T03:34:21.337Z,75.80
2018-06-05T03:36:50.750Z,75.80
2018-06-05T03:39:20.220Z,75.70
2018-06-05T03:41:49.690Z,75.60
2018-06-05T03:44:19.148Z,76.20
2018-06-05T03:46:48.566Z,76.00
2018-06-05T03:49:18.014Z,75.50
2018-06-05T03:51:47.468Z,75.80
2018-06-05T03:54:16.895Z,76.30
2018-06-05T03:56:46.319Z,76.00
2018-06-05T03:59:15.751Z,76.20
2018-06-05T04:01:45.167Z,76.40
2018-06-05T04:04:14.592Z,76.50
2018-06-05T04:06:44.051Z,76.30
2018-06-05T04:09:13.478Z,76.00
2018-06-05T04:11:42.942Z,76.20
2018-06-05T04:14:18.547Z,76.10
2018-06-05T04:16:50.606Z,76.50
2018-06-05T04:19:20.151Z,76.50
2018-06-05T04:21:49.609Z,76.60
2018-06-05T04:24:19.050Z,76.20
2018-06-05T04:26:48.491Z,76.90
2018-06-05T04:29:17.986Z,76.40
2018-06-05T04:31:47.450Z,76.30
2018-06-05T04:34:16.881Z,76.30
2018-06-05T04:36:46.306Z,76.50
2018-06-05T04:39:15.741Z,76.30
2018-06-05T04:41:45.145Z,76.00
2018-06-05T04:44:14.603Z,76.10
2018-06-05T04:46:44.039Z,75.80
2018-06-05T04:49:13.491Z,76.40
2018-06-05T04:51:43.439Z,75.90
2018-06-05T04:54:12.909Z,75.60
2018-06-05T04:56:42.438Z,76.00
2018-06-05T04:59:11.883Z,75.60
2018-06-05T05:01:41.341Z,76.20
2018-06-05T05:04:10.857Z,75.80
2018-06-05T05:06:40.280Z,75.90
2018-06-05T05:09:09.757Z,75.90
2018-06-05T05:11:39.225Z,76.60
2018-06-05T05:14:08.626Z,76.00
2018-06-05T05:16:38.071Z,75.50
2018-06-05T05:19:07.515Z,75.70
2018-06-05T05:21:37.014Z,76.00
2018-06-05T05:24:06.528Z,76.20
2018-06-05T05:26:35.962Z,76.20
2018-06-05T05:29:05.387Z,75.40
2018-06-05T05:31:34.870Z,75.40
2018-06-05T05:34:04.327Z,75.80
2018-06-05T05:36:33.821Z,75.20
2018-06-05T05:39:03.588Z,75.10
2018-06-05T05:41:33.001Z,75.20
2018-06-05T05:44:02.416Z,74.60
2018-06-05T05:46:31.854Z,74.20
2018-06-05T05:49:01.280Z,74.10
2018-06-05T05:51:30.724Z,74.30
2018-06-05T05:54:00.202Z,74.50
2018-06-05T05:56:29.784Z,74.20
2018-06-05T05:58:59.545Z,73.40
2018-06-05T06:01:28.975Z,73.40
2018-06-05T06:04:25.018Z,73.40
2018-06-05T06:07:15.787Z,73.10
2018-06-05T06:09:45.374Z,72.30
2018-06-05T06:12:14.841Z,72.20
2018-06-05T06:14:44.287Z,72.40
2018-06-05T06:17:13.750Z,72.30
2018-06-05T06:19:43.172Z,72.00
2018-06-05T06:22:12.596Z,72.00
2018-06-05T06:24:42.049Z,72.20
2018-06-05T06:27:11.475Z,72.80
2018-06-05T06:29:40.872Z,71.50
2018-06-05T06:32:10.309Z,71.70
2018-06-05T06:34:39.754Z,71.50
2018-06-05T06:37:09.292Z,71.70
2018-06-05T06:39:38.727Z,71.30
2018-06-05T06:42:08.202Z,71.60
2018-06-05T06:44:37.596Z,70.50
2018-06-05T06:47:07.048Z,70.00
2018-06-05T06:49:36.473Z,69.80
2018-06-05T06:52:05.912Z,69.90
2018-06-05T06:54:35.360Z,70.40
2018-06-05T06:57:04.886Z,70.00
2018-06-05T06:59:34.318Z,70.10
2018-06-05T07:02:03.750Z,69.40
2018-06-05T07:04:33.184Z,69.80
2018-06-05T07:07:02.594Z,69.60
2018-06-05T07:09:32.026Z,69.90
2018-06-05T07:12:01.448Z,70.10
2018-06-05T07:14:30.888Z,69.00
2018-06-05T07:17:00.332Z,67.90
2018-06-05T07:19:29.740Z,68.30
2018-06-05T07:21:59.193Z,68.10
2018-06-05T07:24:28.610Z,68.40
2018-06-05T07:26:58.160Z,68.30
2018-06-05T07:29:27.649Z,67.20
2018-06-05T07:31:57.108Z,67.60
2018-06-05T07:34:26.547Z,68.40
2018-06-05T07:36:56.164Z,68.60
2018-06-05T07:39:25.581Z,67.90
2018-06-05T07:41:55.033Z,68.50
2018-06-05T07:44:24.460Z,67.60
2018-06-05T07:46:53.872Z,67.00
2018-06-05T07:49:23.314Z,67.30
2018-06-05T07:51:52.755Z,67.50
2018-06-05T07:54:22.189Z,67.10
2018-06-05T07:56:51.576Z,66.50
2018-06-05T07:59:21.008Z,67.10
2018-06-05T08:01:50.398Z,66.90
2018-06-05T08:04:19.855Z,66.70
2018-06-05T08:06:49.264Z,67.00
2018-06-05T08:09:18.715Z,66.80
2018-06-05T08:11:48.214Z,66.80
2018-06-05T08:14:17.593Z,67.10
2018-06-05T08:16:47.242Z,66.70
2018-06-05T08:19:16.678Z,65.50
2018-06-05T08:21:46.115Z,66.20
2018-06-05T08:24:15.619Z,65.90
2018-06-05T08:26:53.407Z,66.20
2018-06-05T08:29:23.262Z,64.60
2018-06-05T08:31:52.786Z,66.30
2018-06-05T08:34:22.238Z,65.40
2018-06-05T08:36:51.759Z,65.10
2018-06-05T08:39:21.205Z,63.90
2018-06-05T08:41:50.648Z,64.80
2018-06-05T08:44:20.103Z,65.30
2018-06-05T08:46:49.605Z,64.60
2018-06-05T08:49:19.017Z,65.50
2018-06-05T08:51:48.507Z,64.40
2018-06-05T08:54:18.077Z,65.90
2018-06-05T08:56:47.507Z,65.50
2018-06-05T08:59:16.936Z,65.80
2018-06-05T09:01:46.386Z,66.40
2018-06-05T09:04:15.889Z,65.40
2018-06-05T09:06:45.387Z,65.10
2018-06-05T09:09:14.838Z,65.00
2018-06-05T09:11:44.277Z,65.10
2018-06-05T09:14:13.780Z,65.40
2018-06-05T09:16:43.233Z,65.70
2018-06-05T09:19:12.725Z,65.00
2018-06-05T09:21:42.236Z,65.10
2018-06-05T09:24:11.689Z,64.60
2018-06-05T09:26:41.130Z,64.40
2018-06-05T09:29:10.596Z,64.00
2018-06-05T09:31:40.083Z,63.80
2018-06-05T09:34:09.614Z,64.00
2018-06-05T09:36:39.096Z,63.40
2018-06-05T09:39:10.053Z,62.80
2018-06-05T09:41:39.571Z,62.80
2018-06-05T09:44:09.052Z,62.60
2018-06-05T09:46:38.535Z,62.90
2018-06-05T09:49:08.012Z,63.70
2018-06-05T09:51:37.466Z,63.70
2018-06-05T09:54:06.914Z,62.70
2018-06-05T09:56:36.362Z,62.30
2018-06-05T09:59:05.854Z,62.60
2018-06-05T10:01:35.244Z,63.20
2018-06-05T10:04:04.675Z,62.60
2018-06-05T10:06:34.087Z,62.70
2018-06-05T10:09:03.991Z,62.50
2018-06-05T10:11:33.431Z,62.00
2018-06-05T10:14:03.116Z,62.30
2018-06-05T10:16:32.523Z,63.10
2018-06-05T10:19:01.986Z,62.30
2018-06-05T10:21:31.475Z,61.70
2018-06-05T10:24:00.904Z,61.70
2018-06-05T10:26:30.348Z,61.40
2018-06-05T10:28:59.814Z,61.30
2018-06-05T10:31:29.241Z,61.30
2018-06-05T10:33:58.664Z,60.50
2018-06-05T10:36:28.126Z,59.90
2018-06-05T10:38:57.597Z,60.20
2018-06-05T10:41:27.053Z,60.30
2018-06-05T10:43:56.523Z,59.80
2018-06-05T10:46:26.009Z,59.40
2018-06-05T10:48:55.504Z,59.10
2018-06-05T10:51:24.963Z,59.50
2018-06-05T10:53:54.455Z,58.70
2018-06-05T10:56:23.973Z,58.30
2018-06-05T10:58:53.436Z,58.40
2018-06-05T11:01:22.907Z,57.90
2018-06-05T11:03:52.376Z,57.20
2018-06-05T11:06:21.847Z,57.90
2018-06-05T11:08:51.294Z,57.80
2018-06-05T11:11:20.796Z,58.40
2018-06-05T11:13:50.288Z,56.80
2018-06-05T11:16:19.732Z,56.70
2018-06-05T11:18:49.171Z,57.00
2018-06-05T11:21:18.617Z,55.70
2018-06-05T11:23:48.223Z,57.10
2018-06-05T11:26:17.780Z,57.00
2018-06-05T11:28:47.247Z,55.20
2018-06-05T11:31:16.696Z,54.90
2018-06-05T11:33:46.164Z,55.70
2018-06-05T11:36:15.587Z,54.00
2018-06-05T11:38:45.031Z,55.50
2018-06-05T11:41:14.536Z,52.60
2018-06-05T11:43:44.026Z,52.80
2018-06-05T11:46:13.501Z,52.50
2018-06-05T11:48:42.931Z,51.60
2018-06-05T11:51:12.386Z,51.00
2018-06-05T11:53:41.847Z,50.40
2018-06-05T11:56:11.307Z,51.70
2018-06-05T11:58:40.765Z,49.60
2018-06-05T12:01:10.223Z,50.30
2018-06-05T12:03:39.745Z,49.30
2018-06-05T12:06:09.217Z,50.70
2018-06-05T12:08:38.696Z,48.00
2018-06-05T12:11:08.223Z,48.40
2018-06-05T12:13:37.685Z,48.10
2018-06-05T12:16:07.153Z,47.30
2018-06-05T12:18:36.657Z,42.80
2018-06-05T12:21:06.121Z,41.80
2018-06-05T12:23:35.592Z,40.30
2018-06-05T12:26:05.068Z,39.80
2018-06-05T12:28:34.502Z,37.90
2018-06-05T12:31:04.007Z,35.80
2018-06-05T12:33:33.436Z,35.00
2018-06-05T12:36:02.939Z,34.90
2018-06-05T12:38:32.387Z,34.00
2018-06-05T12:41:01.866Z,34.50
2018-06-05T12:43:31.321Z,33.30
2018-06-05T12:46:00.788Z,33.20
2018-06-05T12:48:30.267Z,33.20
2018-06-05T12:50:59.725Z,34.10
2018-06-05T12:53:29.210Z,35.60
2018-06-05T12:55:58.675Z,33.10
2018-06-05T12:58:28.144Z,31.80
2018-06-05T13:00:57.600Z,33.80
2018-06-05T13:03:27.112Z,35.70
2018-06-05T13:05:56.583Z,37.20
2018-06-05T13:08:26.025Z,36.90
2018-06-05T13:10:55.508Z,37.80
2018-06-05T13:13:24.956Z,35.30
2018-06-05T13:15:54.437Z,35.80
2018-06-05T13:18:23.933Z,34.50
2018-06-05T13:20:53.395Z,33.40
2018-06-05T13:23:22.904Z,34.60
2018-06-05T13:25:52.358Z,33.40
2018-06-05T13:28:21.914Z,30.90
2018-06-05T13:30:51.441Z,30.00
2018-06-05T13:33:20.958Z,31.10
2018-06-05T13:35:50.434Z,32.20
2018-06-05T13:38:19.955Z,32.50
2018-06-05T13:40:49.460Z,33.90
2018-06-05T13:43:18.904Z,33.20
2018-06-05T13:45:48.601Z,31.90
2018-06-05T13:48:18.079Z,30.20
2018-06-05T13:50:47.530Z,28.80
2018-06-05T13:53:16.969Z,28.30
2018-06-05T13:55:46.404Z,29.40
2018-06-05T13:58:18.935Z,28.90
2018-06-05T14:00:48.400Z,28.70
2018-06-05T14:03:17.836Z,27.70
2018-06-05T14:05:47.279Z,28.00
2018-06-05T14:08:16.789Z,27.30
2018-06-05T14:10:46.264Z,27.30
2018-06-05T14:13:15.763Z,26.40
2018-06-05T14:15:45.286Z,26.10
2018-06-05T14:18:14.783Z,25.50
2018-06-05T14:20:44.299Z,25.40
2018-06-05T14:23:13.759Z,24.60
2018-06-05T14:25:43.232Z,26.00
2018-06-05T14:28:12.693Z,25.00
2018-06-05T14:30:42.176Z,25.70
2018-06-05T14:33:11.619Z,24.90
2018-06-05T14:35:41.080Z,24.50
2018-06-05T14:38:10.654Z,23.80
2018-06-05T14:40:40.138Z,23.20
2018-06-05T14:45:38.731Z,24.10
2018-06-05T14:48:08.195Z,24.60
2018-06-05T14:50:37.655Z,24.30
2018-06-05T14:53:07.040Z,22.60
2018-06-05T14:55:36.508Z,22.90
2018-06-05T14:58:05.931Z,23.40
2018-06-05T15:00:35.403Z,22.80
2018-06-05T15:03:04.869Z,22.80
2018-06-05T15:05:34.286Z,22.70
2018-06-05T15:08:03.760Z,23.10
2018-06-05T15:10:33.220Z,22.10
2018-06-05T15:13:02.713Z,22.30
2018-06-05T15:15:32.139Z,22.40
2018-06-05T15:18:01.570Z,22.20
2018-06-05T15:20:31.024Z,22.70
2018-06-05T15:23:00.457Z,21.50
2018-06-05T15:25:29.854Z,22.20
2018-06-05T15:27:59.320Z,22.20
2018-06-05T15:30:28.804Z,21.60
2018-06-05T15:32:58.258Z,21.60
2018-06-05T15:35:27.757Z,21.60
2018-06-05T15:37:57.193Z,21.40
2018-06-05T15:40:26.628Z,21.30
2018-06-05T15:42:56.098Z,21.60
2018-06-05T15:45:25.534Z,21.60
2018-06-05T15:47:54.931Z,21.80
2018-06-05T15:50:24.373Z,21.00
2018-06-05T15:52:53.866Z,20.60
2018-06-05T15:55:23.271Z,20.90
2018-06-05T15:57:52.798Z,20.50
2018-06-05T16:00:22.215Z,20.60
2018-06-05T16:02:51.634Z,20.20
2018-06-05T16:05:21.074Z,21.10
2018-06-05T16:07:50.501Z,20.90
2018-06-05T16:10:19.993Z,20.90
2018-06-05T16:12:49.490Z,20.40
2018-06-05T16:15:18.984Z,21.10
2018-06-05T16:17:48.406Z,20.70
2018-06-05T16:20:17.887Z,21.10
2018-06-05T16:22:47.308Z,22.90
2018-06-05T16:25:16.755Z,25.50
2018-06-05T16:27:46.205Z,27.90
2018-06-05T16:30:15.610Z,29.50
2018-06-05T16:32:45.037Z,30.20
2018-06-05T16:35:14.437Z,29.10
2018-06-05T16:37:43.894Z,28.50
2018-06-05T16:40:13.304Z,28.00
2018-06-05T16:42:42.761Z,27.90
2018-06-05T16:45:12.521Z,27.40
2018-06-05T16:47:41.948Z,27.60
2018-06-05T16:50:11.384Z,27.40
2018-06-05T16:52:40.842Z,26.50
2018-06-05T16:55:10.332Z,27.70
2018-06-05T16:57:39.747Z,28.00
2018-06-05T17:00:09.158Z,28.40
2018-06-05T17:02:38.639Z,28.60
2018-06-05T17:05:08.076Z,30.50
2018-06-05T17:07:37.601Z,33.60
2018-06-05T17:10:07.071Z,34.80
2018-06-05T17:12:36.527Z,36.80
2018-06-05T17:15:06.098Z,39.20
2018-06-05T17:17:35.478Z,40.30
2018-06-05T17:20:05.029Z,41.40
2018-06-05T17:22:34.477Z,42.50
2018-06-05T17:25:03.918Z,43.70
2018-06-05T17:27:33.355Z,43.30
2018-06-05T17:32:32.013Z,45.70
2018-06-05T17:35:01.565Z,45.60
2018-06-05T17:37:31.053Z,46.60
2018-06-05T17:40:00.554Z,47.00
2018-06-05T17:42:29.968Z,47.70
2018-06-05T17:44:59.402Z,48.30
2018-06-05T17:47:28.847Z,48.90
2018-06-05T17:49:58.284Z,49.30
2018-06-05T17:52:27.706Z,49.70
2018-06-05T17:54:57.193Z,49.80
2018-06-05T17:57:26.688Z,50.70
2018-06-05T17:59:56.148Z,50.70
2018-06-05T18:02:25.609Z,51.20
2018-06-05T18:04:55.058Z,51.20
2018-06-05T18:07:24.559Z,51.50
2018-06-05T18:10:00.635Z,52.30
2018-06-05T18:12:30.105Z,52.00
2018-06-05T18:14:59.504Z,52.00
2018-06-05T18:17:28.910Z,52.80
2018-06-05T18:19:59.012Z,53.40
2018-06-05T18:22:28.459Z,53.20
2018-06-05T18:24:57.915Z,53.60
2018-06-05T18:27:27.422Z,53.70
2018-06-05T18:29:57.076Z,54.50
2018-06-05T18:32:26.924Z,54.40
2018-06-05T18:34:56.503Z,54.90
2018-06-05T18:37:26.066Z,55.50
2018-06-05T18:39:55.448Z,55.30
2018-06-05T18:42:24.896Z,55.80
2018-06-05T18:44:54.712Z,55.70
2018-06-05T18:47:25.178Z,56.60
2018-06-05T18:49:55.499Z,56.80
2018-06-05T18:52:25.974Z,57.50
2018-06-05T18:54:56.923Z,56.50
2018-06-05T18:59:56.918Z,57.10
2018-06-05T19:02:27.247Z,56.90
2018-06-05T19:04:58.033Z,57.20
2018-06-05T19:07:28.650Z,57.20
2018-06-05T19:10:00.098Z,58.20
2018-06-05T19:15:01.161Z,58.60
2018-06-05T19:17:31.356Z,58.60
2018-06-05T19:20:01.683Z,59.20
2018-06-05T19:22:32.160Z,59.60
2018-06-05T19:25:03.237Z,59.20
2018-06-05T19:27:33.447Z,59.30
2018-06-05T19:30:03.553Z,60.00
2018-06-05T19:32:34.516Z,60.20
2018-06-05T19:35:04.062Z,59.60
2018-06-05T19:37:33.670Z,60.70
2018-06-05T19:40:09.332Z,60.80
2018-06-05T19:45:09.873Z,61.70
2018-06-05T19:47:39.824Z,62.40
2018-06-05T19:52:40.571Z,61.50
2018-06-05T19:55:11.147Z,62.00
2018-06-05T19:57:41.983Z,61.80
2018-06-05T20:00:13.687Z,62.30
2018-06-05T20:02:44.187Z,61.80
2018-06-05T20:05:14.214Z,62.70
2018-06-05T20:07:44.631Z,62.50
2018-06-05T20:10:14.840Z,62.70
2018-06-05T20:12:44.289Z,63.10
2018-06-05T20:15:15.374Z,63.00
2018-06-05T20:17:45.614Z,63.00
2018-06-05T20:20:16.029Z,63.30
2018-06-05T20:22:46.955Z,63.70
2018-06-05T20:25:17.280Z,63.70
2018-06-05T20:27:46.656Z,63.80
2018-06-05T20:30:16.141Z,64.20
2018-06-05T20:32:45.538Z,64.20
2018-06-05T20:35:15.048Z,64.00
2018-06-05T20:37:44.485Z,64.30
2018-06-05T20:40:13.974Z,64.60
2018-06-05T20:42:43.406Z,64.70
2018-06-05T20:45:12.836Z,65.00
2018-06-05T20:47:42.363Z,65.50
2018-06-05T20:50:11.863Z,65.80
2018-06-05T20:52:41.285Z,65.90
2018-06-05T20:55:10.755Z,65.90
2018-06-05T20:57:40.224Z,66.50
2018-06-05T21:00:09.680Z,67.10
2018-06-05T21:02:39.098Z,67.30
2018-06-05T21:05:08.589Z,68.20
2018-06-05T21:07:38.012Z,67.60
2018-06-05T21:10:07.463Z,68.10
2018-06-05T21:12:36.943Z,68.10
2018-06-05T21:15:06.452Z,68.20
2018-06-05T21:17:35.940Z,68.80
2018-06-05T21:20:05.475Z,69.20
2018-06-05T21:22:34.869Z,69.40
2018-06-05T21:25:04.358Z,69.20
2018-06-05T21:27:33.928Z,69.60
2018-06-05T21:30:03.412Z,70.00
2018-06-05T21:32:32.868Z,70.20
2018-06-05T21:35:02.288Z,70.50
2018-06-05T21:37:31.715Z,70.60
2018-06-05T21:40:01.172Z,70.70
2018-06-05T21:42:30.650Z,71.10
2018-06-05T21:45:00.122Z,71.60
2018-06-05T21:47:29.569Z,71.70
2018-06-05T21:49:59.043Z,71.80
2018-06-05T21:52:28.485Z,72.20
2018-06-05T21:54:58.035Z,72.20
2018-06-05T21:57:27.508Z,72.40
2018-06-05T21:59:57.003Z,72.60
2018-06-05T22:02:26.428Z,72.70
2018-06-05T22:04:55.902Z,73.20
2018-06-05T22:07:25.346Z,73.30
2018-06-05T22:12:24.071Z,73.30
2018-06-05T22:14:53.594Z,73.50
2018-06-05T22:17:23.031Z,74.10
2018-06-05T22:19:52.465Z,74.10
2018-06-05T22:22:21.879Z,74.40
2018-06-05T22:24:51.346Z,74.50
2018-06-05T22:27:20.859Z,74.70
2018-06-05T22:29:50.301Z,74.30
2018-06-05T22:32:19.770Z,74.50
2018-06-05T22:34:49.202Z,74.80
2018-06-05T22:37:18.703Z,75.10
2018-06-05T22:39:48.171Z,75.10
2018-06-05T22:42:17.676Z,75.30
2018-06-05T22:44:47.214Z,75.50
2018-06-05T22:47:16.686Z,75.60
2018-06-05T22:49:46.161Z,76.10
2018-06-05T22:52:15.599Z,76.10
2018-06-05T22:54:45.056Z,76.30
2018-06-05T22:57:14.534Z,76.40
2018-06-05T22:59:43.941Z,76.40
2018-06-05T23:02:13.373Z,76.80
2018-06-05T23:04:42.849Z,76.80
2018-06-05T23:07:12.345Z,76.90
2018-06-05T23:09:41.836Z,76.90
2018-06-05T23:12:11.272Z,77.10
2018-06-05T23:14:40.684Z,78.00
2018-06-05T23:17:10.159Z,77.70
2018-06-05T23:19:39.595Z,77.80
2018-06-05T23:22:09.034Z,77.70
2018-06-05T23:24:38.517Z,78.20
2018-06-05T23:27:07.975Z,78.10
2018-06-05T23:29:37.413Z,78.40
2018-06-05T23:32:07.257Z,78.70
2018-06-05T23:34:36.701Z,78.80
2018-06-05T23:37:06.143Z,78.80
2018-06-05T23:39:35.670Z,78.80
2018-06-05T23:42:05.147Z,79.10
2018-06-05T23:44:34.591Z,79.00
2018-06-05T23:47:04.017Z,78.90
2018-06-05T23:49:33.451Z,79.10
2018-06-05T23:52:02.921Z,79.30
2018-06-05T23:54:32.336Z,79.30
2018-06-05T23:57:01.795Z,79.50
2018-06-05T23:59:31.292Z,79.60
